Azle, Texas
Current Conditions -  °F | °C
As of 12:52 PM on Friday 24 Oct 2014 (Local Time) from KNFW Reporting Station
Clear Clear  
Wind Chill: 85°   Ceiling: Unl
Heat Index: 85°   Visibility: 10mi
Dew Point: 59°   Wind: 8mph
Humidity: 41%   Direction: 180°S
Pressure: 30.17"   Gusts: NA
Location:  32.88°N, 97.54°W
Report Text: KNFW 241752Z 18007KT 10SM CLR 29/15 A3017 RMK AO2 SLP200 T02940150 10294 20200 58010 CHINO N VISNO N $
Loading
Personal Weather Stations






























Interactive Weather Map
Tropical Storm Tracking
New forecast layout! Learn more

10-Day Weather Forecast

Advertisements
Track Severe Weather on mobile